Comandante Luis Piedra Buena, Argentina
Current Conditions -  °F | °C
As of 1:00 PM on Thursday 30 Oct 2014 (Local Time) from SAWG Reporting Station
Rain Showers Rain Showers  
Wind Chill: -1°   Ceiling: 4500
Heat Index:   Visibility: 4mi
Dew Point:   Wind: 13mph
Humidity: 87%   Direction: 160°SSE
Pressure: 29.38"   Gusts: NA
Location:  49.98°S, 68.9°W
Report Text: SAWG 301600Z 16011KT 7000 SHRA FEW008FEW030CB OVC045 03/01 Q0995
Loading
Personal Weather Stations






























Interactive Weather Map
Tropical Storm Tracking
New forecast layout! Learn more

10-Day Weather Forecast

Advertisements
Track Severe Weather on mobile